Time;durP1;ratioP1;P1;durP2;ratioP2;P2;SDS_P1;SDS_P2;PMS_P1;PMS_P2;Temp;Humidity;BMP_temperature;BMP_pressure;BME280_temperature;BME280_humidity;BME280_pressure;Samples;Min_cycle;Max_cycle;Signal;HPM_P1;HPM_P2
2021/12/28 00:01:52;;;;;;;17.32;11.45;;;20.70;82.00;;;;;;1786146;79;21246;-79
2021/12/28 00:04:23;;;;;;;20.60;10.25;;;20.70;82.10;;;;;;1847974;76;21149;-80
2021/12/28 00:06:54;;;;;;;17.82;11.48;;;20.70;82.30;;;;;;1856671;76;21205;-80
2021/12/28 00:09:24;;;;;;;15.72;9.63;;;20.70;82.60;;;;;;1863885;76;21087;-80
2021/12/28 00:11:55;;;;;;;19.17;10.95;;;20.60;82.70;;;;;;1855622;77;21130;-81
2021/12/28 00:14:34;;;;;;;18.30;9.05;;;20.60;82.70;;;;;;1853030;77;21129;-80
2021/12/28 00:19:30;;;;;;;16.52;10.20;;;20.70;82.70;;;;;;1853656;76;21535;-81
2021/12/28 00:22:01;;;;;;;18.77;11.20;;;20.70;82.70;;;;;;1811197;78;21725;-80
2021/12/28 00:24:35;;;;;;;21.95;12.03;;;20.70;82.90;;;;;;1823292;78;21664;-81
2021/12/28 00:27:05;;;;;;;18.70;10.80;;;20.70;82.60;;;;;;1779515;79;21665;-81
2021/12/28 00:29:36;;;;;;;17.80;11.28;;;20.80;82.60;;;;;;1811871;78;21160;-80
2021/12/28 00:32:07;;;;;;;17.10;9.08;;;20.80;81.80;;;;;;1816942;78;21170;-80
2021/12/28 00:34:38;;;;;;;12.55;7.80;;;20.80;81.10;;;;;;1815848;78;21240;-81
2021/12/28 00:37:09;;;;;;;14.68;8.33;;;21.00;80.20;;;;;;1818697;78;21143;-82
2021/12/28 00:39:39;;;;;;;16.40;7.55;;;21.10;79.80;;;;;;1823023;78;21162;-82
2021/12/28 00:42:10;;;;;;;13.38;6.75;;;21.10;79.40;;;;;;1813617;79;21244;-81
2021/12/28 00:44:41;;;;;;;11.63;6.50;;;21.20;79.10;;;;;;1814893;78;21277;-81
2021/12/28 00:47:12;;;;;;;11.40;6.47;;;21.30;78.90;;;;;;1807401;78;21156;-81
2021/12/28 00:49:43;;;;;;;10.93;6.47;;;21.40;78.40;;;;;;1815722;78;22186;-81
2021/12/28 00:52:14;;;;;;;9.43;6.10;;;21.50;78.00;;;;;;1751744;81;21109;-81
2021/12/28 00:54:45;;;;;;;12.47;6.17;;;21.50;77.50;;;;;;1786398;80;21722;-80
2021/12/28 00:57:16;;;;;;;9.75;5.33;;;21.60;77.00;;;;;;1781189;79;21212;-82
2021/12/28 00:59:46;;;;;;;12.05;5.42;;;21.60;76.70;;;;;;1818132;78;21635;-81
2021/12/28 01:02:17;;;;;;;11.22;5.87;;;21.60;76.30;;;;;;1821012;78;21716;-79
2021/12/28 01:04:48;;;;;;;11.43;5.47;;;21.70;77.40;;;;;;1821692;77;21699;-81
2021/12/28 01:07:20;;;;;;;9.98;5.67;;;21.70;76.30;;;;;;1814092;78;21174;-80
2021/12/28 01:09:50;;;;;;;10.60;5.33;;;21.80;75.50;;;;;;1828339;78;21280;-83
2021/12/28 01:12:22;;;;;;;10.15;5.42;;;21.90;75.60;;;;;;1818996;78;21093;-81
2021/12/28 01:14:53;;;;;;;10.55;5.22;;;21.90;75.30;;;;;;1757233;80;21232;-80
2021/12/28 01:17:24;;;;;;;14.73;7.33;;;22.00;76.20;;;;;;1815047;78;21092;-81
2021/12/28 01:19:54;;;;;;;10.30;5.37;;;22.10;75.30;;;;;;1814977;78;22637;-81
2021/12/28 01:22:25;;;;;;;10.68;4.50;;;22.10;75.00;;;;;;1834102;78;21144;-73
2021/12/28 01:24:56;;;;;;;9.58;4.85;;;22.20;75.60;;;;;;1828545;77;21129;-72
2021/12/28 01:27:27;;;;;;;10.35;5.37;;;22.30;73.90;;;;;;1825841;78;21136;-72
2021/12/28 01:29:57;;;;;;;9.53;5.03;;;22.30;73.90;;;;;;1813189;77;22348;-73
2021/12/28 01:32:28;;;;;;;7.67;4.45;;;22.40;73.50;;;;;;1816725;78;21236;-72
2021/12/28 01:34:59;;;;;;;10.20;4.92;;;22.40;73.20;;;;;;1822708;78;21135;-72
2021/12/28 01:37:30;;;;;;;9.35;4.70;;;22.50;73.30;;;;;;1824723;78;21690;-73
2021/12/28 01:40:01;;;;;;;6.92;4.30;;;22.50;73.20;;;;;;1820533;78;21598;-73
2021/12/28 01:42:32;;;;;;;12.15;5.40;;;22.50;72.60;;;;;;1794230;79;21199;-72
2021/12/28 01:45:03;;;;;;;14.15;4.53;;;22.50;72.50;;;;;;1814682;78;21241;-73
2021/12/28 01:47:34;;;;;;;10.35;5.20;;;22.50;71.80;;;;;;1822176;78;21134;-71
2021/12/28 01:50:05;;;;;;;10.65;4.17;;;22.50;72.20;;;;;;1819026;77;21107;-71
2021/12/28 01:52:36;;;;;;;9.65;3.85;;;22.60;71.90;;;;;;1779096;79;21634;-73
2021/12/28 01:55:08;;;;;;;10.68;4.92;;;22.60;71.80;;;;;;1822011;77;21586;-72
2021/12/28 01:57:38;;;;;;;5.53;3.65;;;22.70;70.90;;;;;;1781523;79;21636;-72
2021/12/28 02:00:10;;;;;;;13.13;7.30;;;22.70;70.20;;;;;;1819954;77;21243;-71
2021/12/28 02:02:41;;;;;;;13.90;7.12;;;22.70;70.20;;;;;;1821368;77;21173;-71
2021/12/28 02:05:12;;;;;;;10.60;5.97;;;22.70;70.60;;;;;;1821944;78;21491;-71
2021/12/28 02:07:43;;;;;;;8.63;4.70;;;22.70;70.30;;;;;;1813838;78;21718;-69
2021/12/28 02:10:14;;;;;;;6.90;4.25;;;22.70;69.80;;;;;;1814523;78;21150;-70
2021/12/28 02:12:45;;;;;;;9.20;4.30;;;22.70;69.60;;;;;;1816756;78;21233;-70
2021/12/28 02:15:16;;;;;;;5.15;3.42;;;22.80;69.80;;;;;;1785054;79;21679;-71
2021/12/28 02:17:46;;;;;;;35.03;5.85;;;22.80;69.70;;;;;;1816813;77;21123;-71
2021/12/28 02:20:19;;;;;;;40.63;7.15;;;22.90;70.00;;;;;;1817137;77;21205;-70
2021/12/28 02:22:50;;;;;;;7.12;3.80;;;22.90;69.80;;;;;;1820145;77;21209;-70
2021/12/28 02:25:21;;;;;;;6.92;3.95;;;22.90;70.40;;;;;;1821115;77;21630;-71
2021/12/28 02:27:53;;;;;;;7.15;3.47;;;22.90;69.40;;;;;;1814960;78;21163;-70
2021/12/28 02:30:23;;;;;;;7.70;3.12;;;23.00;69.20;;;;;;1838216;76;21425;-72
2021/12/28 02:32:55;;;;;;;6.37;3.17;;;23.00;68.80;;;;;;1816974;78;21175;-72
2021/12/28 02:35:27;;;;;;;9.63;3.50;;;23.00;68.80;;;;;;1809348;77;21174;-72
2021/12/28 02:37:58;;;;;;;6.58;3.62;;;23.10;69.00;;;;;;1783263;79;21205;-72
2021/12/28 02:40:32;;;;;;;7.05;3.50;;;23.10;68.90;;;;;;1809078;78;21186;-72
2021/12/28 02:43:04;;;;;;;13.62;4.03;;;23.10;68.00;;;;;;1783877;79;21912;-71
2021/12/28 02:45:38;;;;;;;8.53;3.45;;;23.20;68.70;;;;;;1798164;78;21190;-72
2021/12/28 02:48:09;;;;;;;6.20;3.50;;;23.30;68.40;;;;;;1821290;78;21655;-71
2021/12/28 02:50:43;;;;;;;7.95;3.85;;;23.30;68.60;;;;;;1815763;77;21186;-72
2021/12/28 02:53:15;;;;;;;12.07;4.37;;;23.30;68.70;;;;;;1852756;76;21201;-71
2021/12/28 02:55:46;;;;;;;11.00;4.30;;;23.40;68.30;;;;;;1854912;76;21146;-72
2021/12/28 02:58:20;;;;;;;12.50;5.05;;;23.50;68.40;;;;;;1858837;76;21123;-73
2021/12/28 03:00:54;;;;;;;10.38;5.22;;;23.50;67.90;;;;;;1850792;76;21665;-71
2021/12/28 03:03:27;;;;;;;9.58;5.10;;;23.50;68.10;;;;;;1845287;77;21151;-71
2021/12/28 03:06:00;;;;;;;11.05;4.92;;;23.60;67.60;;;;;;1856249;76;21153;-72
2021/12/28 03:08:33;;;;;;;10.78;5.25;;;23.60;67.70;;;;;;1815828;77;21220;-70
2021/12/28 03:11:05;;;;;;;11.30;4.17;;;23.70;67.90;;;;;;1845167;76;21194;-71
2021/12/28 03:13:38;;;;;;;11.65;4.83;;;23.70;67.60;;;;;;1816324;77;21125;-71
2021/12/28 03:16:09;;;;;;;8.53;5.15;;;23.80;67.90;;;;;;1782684;80;21287;-70
2021/12/28 03:18:40;;;;;;;7.80;4.60;;;23.90;67.30;;;;;;1778899;79;21791;-70
2021/12/28 03:21:13;;;;;;;6.17;3.90;;;24.00;66.70;;;;;;1819595;77;21150;-70
2021/12/28 03:23:45;;;;;;;8.95;4.20;;;24.00;66.80;;;;;;1856699;76;21080;-71
2021/12/28 03:26:16;;;;;;;7.15;4.20;;;24.10;66.20;;;;;;1854918;76;21071;-70
2021/12/28 03:28:48;;;;;;;11.28;5.28;;;24.20;66.30;;;;;;1810694;77;21075;-71
2021/12/28 03:31:21;;;;;;;11.70;4.92;;;24.30;66.00;;;;;;1779015;80;21771;-70
2021/12/28 03:33:54;;;;;;;8.18;4.40;;;24.40;65.50;;;;;;1856298;77;21159;-71
2021/12/28 03:36:29;;;;;;;8.58;5.25;;;24.40;65.70;;;;;;1852958;76;21146;-68
2021/12/28 03:39:01;;;;;;;9.23;5.20;;;24.50;65.50;;;;;;1856956;76;21158;-69
2021/12/28 03:41:33;;;;;;;10.18;4.78;;;24.60;65.10;;;;;;1793286;79;21136;-71
2021/12/28 03:44:04;;;;;;;8.83;4.72;;;24.60;64.90;;;;;;1843065;77;22363;-71
2021/12/28 03:46:55;;;;;;;12.07;5.50;;;24.70;65.40;;;;;;1853143;76;21185;-71
2021/12/28 03:49:26;;;;;;;9.65;5.17;;;24.80;64.30;;;;;;1754083;80;21215;-69
2021/12/28 03:51:57;;;;;;;6.87;3.72;;;24.90;63.80;;;;;;1735137;82;21998;-71
2021/12/28 03:54:29;;;;;;;16.37;3.35;;;25.00;64.00;;;;;;1744669;80;21174;-72
2021/12/28 03:57:00;;;;;;;7.85;3.00;;;25.10;63.50;;;;;;1734805;82;21303;-71
2021/12/28 03:59:32;;;;;;;7.17;3.27;;;25.20;63.30;;;;;;1744073;82;21203;-70
2021/12/28 04:02:03;;;;;;;6.65;2.90;;;25.40;63.50;;;;;;1742077;81;21192;-70
2021/12/28 04:04:34;;;;;;;4.75;3.10;;;25.50;63.20;;;;;;1742839;82;21256;-71
2021/12/28 04:07:07;;;;;;;5.90;2.80;;;25.60;62.20;;;;;;1743081;80;21248;-72
2021/12/28 04:12:10;;;;;;;5.70;2.50;;;25.70;62.40;;;;;;1746939;82;21267;-71
2021/12/28 04:15:00;;;;;;;10.70;2.37;;;25.80;61.50;;;;;;1803185;79;21629;-74
2021/12/28 04:17:33;;;;;;;8.48;2.60;;;25.90;61.40;;;;;;1916018;73;21114;-72
2021/12/28 04:20:04;;;;;;;3.87;1.87;;;26.00;60.90;;;;;;1916800;73;21113;-82
2021/12/28 04:22:35;;;;;;;5.78;2.12;;;26.00;61.20;;;;;;1918632;74;21172;-82
2021/12/28 04:25:07;;;;;;;5.30;1.75;;;26.10;62.00;;;;;;1914412;75;21126;-80
2021/12/28 04:27:38;;;;;;;6.53;2.25;;;26.20;61.60;;;;;;1920502;72;21119;-84
2021/12/28 04:30:11;;;;;;;6.15;1.90;;;26.30;60.20;;;;;;1933480;73;21068;-81
2021/12/28 04:32:42;;;;;;;6.40;2.00;;;26.30;60.00;;;;;;1934741;71;21075;-80
2021/12/28 04:35:14;;;;;;;5.65;1.82;;;26.40;60.70;;;;;;1889311;75;21219;-83
2021/12/28 04:37:45;;;;;;;6.60;2.12;;;26.50;60.10;;;;;;1907745;75;21100;-81
2021/12/28 04:40:18;;;;;;;4.12;1.80;;;26.50;60.80;;;;;;1924255;73;21103;-81
2021/12/28 04:42:48;;;;;;;4.53;2.60;;;26.60;59.80;;;;;;1904382;73;21161;-81
2021/12/28 04:45:19;;;;;;;5.72;2.40;;;26.80;59.60;;;;;;1916965;74;21161;-81
2021/12/28 04:47:50;;;;;;;5.60;2.02;;;26.80;59.60;;;;;;1915699;73;21232;-82
2021/12/28 04:50:21;;;;;;;4.80;2.42;;;26.80;59.50;;;;;;1910424;73;21711;-82
2021/12/28 04:52:53;;;;;;;4.05;2.10;;;26.90;59.10;;;;;;1924624;73;21149;-81
2021/12/28 04:55:24;;;;;;;6.67;2.30;;;26.90;59.00;;;;;;1919495;73;21231;-80
2021/12/28 04:57:58;;;;;;;6.72;2.50;;;27.00;59.50;;;;;;1904919;74;21043;-80
2021/12/28 05:00:30;;;;;;;4.97;2.98;;;27.10;59.50;;;;;;1901486;74;21209;-81
2021/12/28 05:03:01;;;;;;;5.08;2.83;;;27.20;58.90;;;;;;1918201;73;21219;-80
2021/12/28 05:05:32;;;;;;;5.00;2.80;;;27.30;58.80;;;;;;1918549;74;21115;-82
2021/12/28 05:08:05;;;;;;;8.05;2.95;;;27.40;58.10;;;;;;1917580;73;21200;-81
2021/12/28 05:10:43;;;;;;;6.95;2.77;;;27.40;58.30;;;;;;1920731;73;21157;-82
2021/12/28 05:13:13;;;;;;;4.97;2.60;;;27.40;58.50;;;;;;1918741;74;21136;-82
2021/12/28 05:15:45;;;;;;;7.97;3.35;;;27.50;58.30;;;;;;1916835;74;21146;-81
2021/12/28 05:18:16;;;;;;;7.85;3.15;;;27.50;58.50;;;;;;1911710;74;21044;-82
2021/12/28 05:20:47;;;;;;;5.15;2.83;;;27.60;58.50;;;;;;1910371;75;21082;-82
2021/12/28 05:23:18;;;;;;;6.08;2.22;;;27.60;57.70;;;;;;1903066;74;21215;-82
2021/12/28 05:25:51;;;;;;;4.00;2.10;;;27.70;57.70;;;;;;1866891;75;21757;-82
2021/12/28 05:28:22;;;;;;;5.95;2.08;;;27.80;57.80;;;;;;1915833;74;21555;-84
2021/12/28 05:30:53;;;;;;;3.77;1.87;;;27.80;56.80;;;;;;1919197;74;21138;-82
2021/12/28 05:33:24;;;;;;;6.12;1.90;;;27.90;57.20;;;;;;1870589;75;21174;-82
2021/12/28 05:35:56;;;;;;;5.53;1.85;;;28.00;57.40;;;;;;1916807;74;21071;-83
2021/12/28 05:38:59;;;;;;;5.87;2.27;;;28.00;57.40;;;;;;1923863;74;21122;-81
2021/12/28 05:41:30;;;;;;;3.47;2.02;;;28.10;57.30;;;;;;1879004;76;21712;-82
2021/12/28 05:44:01;;;;;;;5.70;1.92;;;28.20;56.70;;;;;;1896330;75;21138;-81
2021/12/28 05:46:32;;;;;;;4.70;2.08;;;28.30;55.80;;;;;;1907756;74;21133;-83
2021/12/28 05:49:03;;;;;;;4.22;1.70;;;28.30;56.20;;;;;;1910184;73;21119;-84
2021/12/28 05:51:34;;;;;;;5.42;1.75;;;28.30;55.80;;;;;;1907804;75;21138;-85
2021/12/28 05:54:05;;;;;;;6.28;2.17;;;28.30;56.00;;;;;;1868498;75;21241;-84
2021/12/28 05:56:37;;;;;;;5.67;1.95;;;28.30;56.60;;;;;;1909576;73;21153;-83
2021/12/28 05:59:08;;;;;;;4.28;1.87;;;28.30;56.50;;;;;;1911696;74;21146;-84
2021/12/28 06:01:39;;;;;;;5.12;2.30;;;28.40;56.40;;;;;;1910523;73;21099;-84
2021/12/28 06:04:11;;;;;;;4.00;2.08;;;28.40;56.60;;;;;;1911835;73;21099;-84
2021/12/28 06:06:42;;;;;;;6.20;1.95;;;28.50;57.10;;;;;;1910395;73;21196;-82
2021/12/28 06:09:13;;;;;;;3.75;2.40;;;28.60;56.20;;;;;;1917536;73;21185;-83
2021/12/28 06:11:44;;;;;;;5.25;2.02;;;28.60;56.30;;;;;;1862464;75;21157;-81
2021/12/28 06:14:15;;;;;;;4.53;2.10;;;28.70;56.70;;;;;;1827554;74;21655;-84
2021/12/28 06:16:46;;;;;;;3.90;2.00;;;28.70;56.70;;;;;;1906237;73;21141;-83
2021/12/28 06:19:16;;;;;;;4.22;1.60;;;28.80;55.40;;;;;;1922348;73;21158;-84
2021/12/28 06:21:48;;;;;;;4.00;1.80;;;28.80;55.50;;;;;;1870075;75;21102;-83
2021/12/28 06:24:19;;;;;;;4.67;1.70;;;28.80;55.40;;;;;;1917996;73;21144;-81
2021/12/28 06:26:49;;;;;;;3.85;1.50;;;28.90;56.20;;;;;;1908071;73;21508;-83
2021/12/28 06:29:20;;;;;;;3.35;1.55;;;28.90;55.50;;;;;;1913122;73;21862;-83
2021/12/28 06:31:51;;;;;;;3.80;1.75;;;29.00;56.10;;;;;;1912564;73;21199;-83
2021/12/28 06:34:22;;;;;;;4.67;1.98;;;29.00;55.00;;;;;;1913843;73;21640;-84
2021/12/28 06:36:53;;;;;;;4.08;1.70;;;29.00;55.10;;;;;;1911847;73;21587;-84
2021/12/28 06:39:24;;;;;;;3.40;1.60;;;29.10;55.20;;;;;;1916183;73;21236;-83
2021/12/28 06:41:55;;;;;;;2.87;1.30;;;29.10;55.20;;;;;;1916047;73;21132;-84
2021/12/28 06:44:26;;;;;;;4.72;2.00;;;29.10;55.20;;;;;;1910204;75;21567;-71
2021/12/28 06:46:56;;;;;;;3.70;1.60;;;29.10;54.70;;;;;;1914220;75;21550;-69
2021/12/28 06:49:27;;;;;;;16.02;3.42;;;29.10;54.20;;;;;;1910301;75;21114;-70
2021/12/28 06:51:58;;;;;;;4.00;2.40;;;29.10;54.20;;;;;;1913058;75;21618;-70
2021/12/28 06:54:36;;;;;;;6.85;1.90;;;29.20;54.40;;;;;;1910049;74;21130;-70
2021/12/28 06:57:02;;;;;;;5.78;2.12;;;29.10;54.70;;;;;;1911139;75;21577;-70
2021/12/28 06:59:33;;;;;;;8.55;1.98;;;29.20;54.40;;;;;;1912044;73;21122;-71
2021/12/28 07:02:05;;;;;;;3.12;1.65;;;29.20;54.50;;;;;;1909737;73;21212;-71
2021/12/28 07:04:36;;;;;;;7.28;2.05;;;29.30;53.90;;;;;;1909353;74;21235;-70
2021/12/28 07:07:07;;;;;;;3.67;1.90;;;29.30;54.20;;;;;;1908359;73;21183;-71
2021/12/28 07:09:38;;;;;;;6.25;2.15;;;29.30;54.10;;;;;;1910895;73;21235;-70
2021/12/28 07:12:11;;;;;;;6.78;2.15;;;29.30;54.00;;;;;;1915102;73;21562;-70
2021/12/28 07:14:41;;;;;;;2.65;1.50;;;29.30;54.10;;;;;;1916486;73;21532;-71
2021/12/28 07:17:12;;;;;;;3.20;1.80;;;29.40;53.80;;;;;;1915323;75;21129;-70
2021/12/28 07:19:43;;;;;;;6.12;1.95;;;29.30;53.70;;;;;;1917482;75;21106;-71
2021/12/28 07:22:14;;;;;;;5.17;1.82;;;29.30;53.80;;;;;;1917044;74;21106;-71
2021/12/28 07:24:45;;;;;;;3.33;1.70;;;29.30;54.20;;;;;;1907663;74;21142;-70
2021/12/28 07:27:16;;;;;;;4.83;2.40;;;29.30;54.20;;;;;;1912987;73;21162;-71
2021/12/28 07:29:46;;;;;;;5.75;2.55;;;29.20;53.80;;;;;;1916975;73;21142;-71
2021/12/28 07:32:18;;;;;;;3.67;1.77;;;29.20;54.90;;;;;;1917328;75;21644;-71
2021/12/28 07:34:49;;;;;;;5.55;2.00;;;29.20;53.90;;;;;;1918048;75;21167;-70
2021/12/28 07:37:19;;;;;;;2.12;1.20;;;29.20;55.00;;;;;;1921807;73;21156;-71
2021/12/28 07:39:50;;;;;;;5.45;1.50;;;29.20;54.20;;;;;;1916776;73;21789;-71
2021/12/28 07:42:22;;;;;;;2.60;1.40;;;29.20;54.10;;;;;;1906236;73;21127;-70
2021/12/28 07:44:53;;;;;;;5.47;1.80;;;29.20;54.20;;;;;;1917769;73;21610;-70
2021/12/28 07:47:24;;;;;;;3.33;1.90;;;29.10;54.50;;;;;;1895284;73;21123;-70
2021/12/28 07:49:54;;;;;;;6.62;2.10;;;29.10;54.30;;;;;;1916980;73;21087;-70
2021/12/28 07:52:25;;;;;;;3.45;2.10;;;29.10;54.30;;;;;;1917863;75;21538;-70
2021/12/28 07:54:56;;;;;;;4.25;1.60;;;29.00;54.10;;;;;;1917131;75;21610;-70
2021/12/28 07:57:27;;;;;;;3.83;1.90;;;29.00;54.20;;;;;;1917364;75;21043;-69
2021/12/28 07:59:58;;;;;;;4.62;1.60;;;29.00;54.70;;;;;;1916634;75;21097;-69
2021/12/28 08:02:29;;;;;;;3.17;1.70;;;29.00;54.60;;;;;;1910732;75;21082;-69
2021/12/28 08:05:00;;;;;;;3.30;1.60;;;28.90;54.90;;;;;;1911825;75;21051;-70
2021/12/28 08:07:30;;;;;;;7.12;1.70;;;28.90;55.10;;;;;;1913349;75;21067;-70
2021/12/28 08:10:01;;;;;;;3.67;1.50;;;28.90;55.10;;;;;;1916838;75;21055;-70
2021/12/28 08:12:32;;;;;;;2.30;1.35;;;28.90;54.70;;;;;;1885808;75;21139;-71
2021/12/28 08:15:04;;;;;;;2.80;1.70;;;28.80;54.80;;;;;;1915189;75;21121;-70
2021/12/28 08:17:36;;;;;;;3.52;1.55;;;28.80;55.10;;;;;;1917547;75;21158;-71
2021/12/28 08:20:09;;;;;;;3.37;1.47;;;28.80;55.30;;;;;;1917703;74;21155;-71
2021/12/28 08:22:40;;;;;;;5.15;1.52;;;28.70;55.60;;;;;;1918157;75;21073;-70
2021/12/28 08:25:17;;;;;;;4.37;1.40;;;28.80;55.20;;;;;;1909970;75;21112;-71
2021/12/28 08:27:48;;;;;;;4.40;1.55;;;28.80;55.30;;;;;;1917577;75;21059;-71
2021/12/28 08:30:23;;;;;;;9.03;1.77;;;28.80;55.10;;;;;;1916985;75;21637;-71
2021/12/28 08:32:53;;;;;;;3.55;1.90;;;28.80;55.40;;;;;;1917274;74;21193;-71
2021/12/28 08:35:24;;;;;;;4.08;1.90;;;28.80;55.20;;;;;;1920860;73;21553;-71
2021/12/28 08:37:55;;;;;;;4.03;1.82;;;28.70;55.00;;;;;;1915103;73;21622;-71
2021/12/28 08:40:27;;;;;;;4.80;1.70;;;28.70;55.40;;;;;;1919763;73;21408;-71
2021/12/28 08:42:57;;;;;;;2.90;1.52;;;28.70;55.60;;;;;;1870122;76;21520;-71
2021/12/28 08:45:28;;;;;;;4.37;1.87;;;28.60;55.60;;;;;;1854038;77;21155;-71
2021/12/28 08:47:59;;;;;;;4.42;1.42;;;28.60;55.70;;;;;;1871219;75;21037;-71
2021/12/28 08:50:31;;;;;;;4.42;1.55;;;28.60;55.60;;;;;;1898632;75;21111;-71
2021/12/28 08:53:01;;;;;;;3.45;1.30;;;28.70;55.60;;;;;;1918216;75;21140;-71
2021/12/28 08:55:33;;;;;;;3.98;1.80;;;28.70;55.70;;;;;;1921097;74;21154;-70
2021/12/28 08:58:04;;;;;;;3.30;1.98;;;28.70;55.70;;;;;;1917924;75;21152;-72
2021/12/28 09:00:37;;;;;;;5.10;2.60;;;28.70;55.70;;;;;;1911564;75;21166;-71
2021/12/28 09:03:08;;;;;;;3.85;1.75;;;28.70;55.60;;;;;;1917289;75;21069;-70
2021/12/28 09:05:39;;;;;;;4.53;1.95;;;28.70;55.80;;;;;;1914166;73;21132;-71
2021/12/28 09:08:16;;;;;;;3.20;1.72;;;28.70;55.70;;;;;;1907124;74;21652;-70
2021/12/28 09:10:44;;;;;;;4.80;2.20;;;28.60;55.60;;;;;;1901581;75;21188;-71
2021/12/28 09:13:16;;;;;;;4.42;2.12;;;28.60;55.40;;;;;;1917552;75;21609;-71
2021/12/28 09:15:47;;;;;;;5.70;2.47;;;28.70;55.60;;;;;;1917789;75;21168;-71
2021/12/28 09:18:22;;;;;;;7.45;2.77;;;28.70;55.60;;;;;;1912525;75;21183;-71
2021/12/28 09:20:52;;;;;;;5.53;2.62;;;28.60;55.70;;;;;;1908385;75;21146;-71
2021/12/28 09:23:23;;;;;;;4.25;2.35;;;28.60;55.70;;;;;;1910747;74;21107;-71
2021/12/28 09:25:55;;;;;;;8.20;2.40;;;28.60;56.00;;;;;;1911531;74;21165;-73
2021/12/28 09:28:26;;;;;;;2.92;1.52;;;28.60;55.80;;;;;;1907351;74;21538;-71
2021/12/28 09:30:57;;;;;;;4.33;1.50;;;28.50;55.60;;;;;;1886059;75;21228;-72
2021/12/28 09:33:28;;;;;;;4.83;1.77;;;28.50;55.80;;;;;;1899195;74;21163;-73
2021/12/28 09:36:01;;;;;;;5.15;2.35;;;28.50;55.80;;;;;;1906105;75;21703;-73
2021/12/28 09:38:31;;;;;;;3.83;2.50;;;28.50;55.90;;;;;;1869842;76;21694;-72
2021/12/28 09:41:02;;;;;;;3.77;2.45;;;28.50;56.20;;;;;;1912524;74;21067;-71
2021/12/28 09:43:33;;;;;;;5.55;2.67;;;28.40;56.00;;;;;;1883663;75;21150;-73
2021/12/28 09:46:04;;;;;;;6.30;2.37;;;28.40;56.10;;;;;;1893641;74;21224;-72
2021/12/28 09:48:35;;;;;;;6.12;2.65;;;28.40;56.00;;;;;;1908236;74;21099;-72
2021/12/28 09:51:08;;;;;;;5.20;2.20;;;28.40;56.20;;;;;;1938681;74;21107;-71
2021/12/28 09:53:39;;;;;;;5.33;2.02;;;28.30;56.20;;;;;;1900253;74;21146;-85
2021/12/28 09:56:10;;;;;;;4.25;1.90;;;28.30;56.20;;;;;;1925880;74;21113;-85
2021/12/28 09:58:42;;;;;;;2.98;1.57;;;28.20;56.40;;;;;;1913214;74;21056;-88
2021/12/28 10:01:13;;;;;;;4.75;2.95;;;28.20;56.60;;;;;;1903873;74;21173;-86
2021/12/28 10:03:44;;;;;;;3.60;2.20;;;28.20;56.70;;;;;;1896457;74;21117;-86
2021/12/28 10:06:17;;;;;;;5.42;2.55;;;28.10;56.80;;;;;;1866884;76;21825;-84
2021/12/28 10:08:50;;;;;;;3.40;1.95;;;28.10;56.90;;;;;;1910787;75;21122;-86
2021/12/28 10:11:23;;;;;;;9.53;2.00;;;28.00;57.10;;;;;;1868879;77;21104;-85
2021/12/28 10:13:56;;;;;;;8.18;2.25;;;28.00;57.20;;;;;;1902852;75;21437;-86
2021/12/28 10:16:29;;;;;;;5.17;2.50;;;27.90;58.10;;;;;;1867042;76;21766;-87
2021/12/28 10:19:02;;;;;;;6.10;2.22;;;27.90;57.60;;;;;;1906653;74;21121;-85
2021/12/28 10:21:33;;;;;;;5.17;2.90;;;27.90;57.70;;;;;;1869162;76;21068;-86
2021/12/28 10:24:04;;;;;;;4.70;2.47;;;27.80;57.60;;;;;;1918484;75;21098;-85
2021/12/28 10:26:35;;;;;;;7.95;2.55;;;27.80;57.80;;;;;;1917377;75;21115;-85
2021/12/28 10:29:09;;;;;;;5.60;2.42;;;27.80;57.70;;;;;;1917524;75;21118;-85
2021/12/28 10:31:40;;;;;;;5.53;2.40;;;27.80;58.50;;;;;;1914831;75;21188;-88
2021/12/28 10:34:13;;;;;;;4.03;2.33;;;27.70;58.10;;;;;;1922579;73;21170;-87
2021/12/28 10:36:57;;;;;;;7.12;2.58;;;27.70;58.20;;;;;;1913681;75;21245;-82
2021/12/28 10:39:30;;;;;;;6.55;3.10;;;27.70;58.30;;;;;;1885762;76;21686;-85
2021/12/28 10:42:07;;;;;;;7.30;2.90;;;27.60;58.40;;;;;;1897366;75;21224;-87
2021/12/28 10:44:54;;;;;;;6.90;2.90;;;27.60;59.30;;;;;;1916766;75;21137;-86
2021/12/28 10:47:28;;;;;;;6.42;3.52;;;27.60;58.60;;;;;;1916596;75;21122;-85
2021/12/28 10:50:08;;;;;;;7.75;4.22;;;27.50;58.70;;;;;;1918585;75;21067;-86
2021/12/28 10:52:38;;;;;;;9.38;5.05;;;27.50;58.80;;;;;;1928172;74;21098;-88
2021/12/28 10:55:12;;;;;;;8.45;3.92;;;27.50;59.00;;;;;;1917738;73;21162;-89
2021/12/28 10:57:48;;;;;;;7.53;4.17;;;27.40;59.10;;;;;;1916563;75;21142;-88
2021/12/28 11:03:14;;;;;;;7.83;3.08;;;27.40;59.40;;;;;;1779408;80;21196;-87
2021/12/28 11:06:06;;;;;;;9.03;3.80;;;27.30;59.50;;;;;;1824392;77;21110;-88
2021/12/28 11:08:49;;;;;;;13.85;6.90;;;27.30;59.70;;;;;;1825025;77;21165;-88
2021/12/28 11:11:38;;;;;;;22.17;12.45;;;27.30;59.80;;;;;;1759678;81;21629;-90
2021/12/28 11:14:11;;;;;;;16.57;9.83;;;27.30;59.90;;;;;;1768243;79;21171;-87
2021/12/28 11:16:44;;;;;;;17.32;9.23;;;27.20;59.90;;;;;;1755683;80;21210;-88
2021/12/28 11:19:31;;;;;;;15.18;9.88;;;27.20;60.00;;;;;;1842891;78;21176;-90
2021/12/28 11:22:01;;;;;;;15.90;9.38;;;27.10;60.10;;;;;;1828786;77;21150;-82
2021/12/28 11:24:34;;;;;;;17.95;10.90;;;27.10;60.20;;;;;;1788438;80;22050;-81
2021/12/28 11:27:07;;;;;;;19.37;9.70;;;27.10;60.40;;;;;;1775553;79;21239;-80
2021/12/28 11:29:40;;;;;;;16.12;9.93;;;27.10;60.50;;;;;;1766669;79;21223;-80
2021/12/28 11:32:17;;;;;;;15.80;10.38;;;27.10;60.80;;;;;;1757459;81;21469;-81
2021/12/28 11:34:48;;;;;;;14.30;9.05;;;27.10;60.90;;;;;;1815936;77;21146;-79
2021/12/28 11:37:23;;;;;;;17.27;9.48;;;27.00;61.00;;;;;;1782008;79;21100;-86
2021/12/28 11:40:02;;;;;;;20.43;9.03;;;27.00;61.20;;;;;;1780817;80;21143;-77
2021/12/28 11:42:33;;;;;;;18.15;9.28;;;27.00;61.60;;;;;;1766871;81;21571;-81
2021/12/28 11:45:06;;;;;;;15.75;8.53;;;27.00;61.50;;;;;;1776338;79;21214;-81
2021/12/28 11:47:39;;;;;;;13.18;7.90;;;26.90;61.60;;;;;;1813523;78;21274;-79
2021/12/28 11:50:13;;;;;;;17.62;8.15;;;26.90;61.90;;;;;;1830156;77;21272;-81
2021/12/28 11:52:45;;;;;;;16.30;7.35;;;26.90;62.00;;;;;;1815153;77;21186;-79
2021/12/28 11:55:16;;;;;;;15.18;7.53;;;26.80;62.30;;;;;;1779698;80;21227;-79
2021/12/28 11:57:51;;;;;;;16.20;8.38;;;26.80;62.40;;;;;;1750338;81;21295;-78
2021/12/28 12:00:23;;;;;;;18.92;9.40;;;26.80;62.60;;;;;;1847422;75;21150;-82
2021/12/28 12:02:59;;;;;;;15.08;8.93;;;26.80;62.70;;;;;;1911263;75;21145;-79
2021/12/28 12:05:31;;;;;;;16.65;8.50;;;26.70;62.80;;;;;;1913175;73;21614;-81
2021/12/28 12:08:04;;;;;;;17.92;8.80;;;26.70;63.00;;;;;;1913140;73;21209;-81
2021/12/28 12:10:37;;;;;;;15.85;8.63;;;26.70;63.10;;;;;;1914954;73;21105;-81
2021/12/28 12:13:11;;;;;;;18.45;10.08;;;26.70;63.20;;;;;;1910821;73;21075;-82
2021/12/28 12:15:45;;;;;;;20.23;9.85;;;26.60;63.20;;;;;;1872217;75;21174;-84
2021/12/28 12:18:19;;;;;;;20.35;10.75;;;26.60;63.40;;;;;;1914681;73;21165;-78
2021/12/28 12:20:52;;;;;;;19.60;10.80;;;26.60;63.50;;;;;;1908575;74;21230;-79
2021/12/28 12:23:26;;;;;;;24.52;10.32;;;26.60;63.70;;;;;;1916596;74;21659;-80
2021/12/28 12:26:00;;;;;;;24.57;11.43;;;26.50;63.70;;;;;;1917113;73;21917;-79
2021/12/28 12:31:25;;;;;;;24.02;12.05;;;26.50;64.00;;;;;;1921783;73;21589;-79
2021/12/28 12:33:57;;;;;;;18.77;10.40;;;26.40;63.70;;;;;;1847248;76;21122;-81
2021/12/28 12:36:30;;;;;;;21.10;11.03;;;26.50;64.30;;;;;;1931366;73;21185;-79
2021/12/28 12:39:02;;;;;;;24.72;9.63;;;26.40;64.50;;;;;;1929328;73;21158;-79
2021/12/28 12:41:35;;;;;;;15.60;8.45;;;26.30;65.30;;;;;;1915406;73;21193;-79
2021/12/28 12:44:09;;;;;;;16.42;7.90;;;26.30;64.60;;;;;;1923239;73;21532;-80
2021/12/28 12:46:46;;;;;;;13.48;7.22;;;26.30;64.80;;;;;;1939837;73;21196;-79
2021/12/28 12:49:19;;;;;;;13.30;6.47;;;26.20;64.90;;;;;;1914633;73;21135;-80
2021/12/28 12:51:53;;;;;;;14.38;6.67;;;26.20;64.90;;;;;;1917618;74;21107;-79
2021/12/28 12:54:26;;;;;;;14.33;6.15;;;26.20;65.20;;;;;;1910478;73;21142;-78
2021/12/28 12:56:57;;;;;;;14.85;6.20;;;26.20;65.00;;;;;;1908345;73;21103;-80
2021/12/28 12:59:30;;;;;;;14.05;6.78;;;26.20;65.20;;;;;;1923933;73;21661;-79
2021/12/28 13:02:02;;;;;;;16.80;7.22;;;26.20;65.20;;;;;;1920810;73;21127;-80
2021/12/28 13:04:32;;;;;;;14.10;7.30;;;26.10;65.10;;;;;;1931680;74;21155;-85
2021/12/28 13:07:04;;;;;;;17.10;7.85;;;26.10;66.30;;;;;;1916958;73;21132;-78
2021/12/28 13:09:38;;;;;;;16.32;8.03;;;26.10;65.60;;;;;;1916994;73;21650;-79
2021/12/28 13:12:11;;;;;;;17.12;7.67;;;26.00;65.50;;;;;;1920421;74;21123;-78
2021/12/28 13:14:43;;;;;;;12.65;7.35;;;26.00;65.60;;;;;;1922521;74;21147;-79
2021/12/28 13:17:17;;;;;;;13.00;7.45;;;26.00;65.40;;;;;;1912749;75;21148;-79
2021/12/28 13:20:01;;;;;;;20.15;7.70;;;26.00;65.50;;;;;;1908227;73;21076;-78